createdAt,value
2022-12-19T00:01:55.129Z,19.95
2022-12-19T00:04:22.303Z,19.99
2022-12-19T00:06:49.709Z,20.05
2022-12-19T00:09:16.854Z,20.12
2022-12-19T00:11:43.869Z,20.12
2022-12-19T00:14:12.268Z,20.07
2022-12-19T00:16:39.455Z,20.04
2022-12-19T00:19:07.119Z,20.02
2022-12-19T00:21:35.636Z,20.02
2022-12-19T00:24:20.388Z,20.02
2022-12-19T00:26:48.958Z,19.99
2022-12-19T00:29:16.246Z,20.00
2022-12-19T00:31:43.662Z,20.01
2022-12-19T00:34:10.879Z,19.98
2022-12-19T00:36:38.114Z,19.95
2022-12-19T00:39:08.226Z,19.92
2022-12-19T00:41:41.380Z,19.90
2022-12-19T00:44:14.370Z,19.88
2022-12-19T00:46:42.301Z,19.87
2022-12-19T00:49:09.648Z,19.89
2022-12-19T00:51:38.487Z,19.91
2022-12-19T00:54:07.348Z,19.97
2022-12-19T00:56:37.502Z,20.00
2022-12-19T00:59:06.612Z,20.02
2022-12-19T01:01:36.616Z,20.08
2022-12-19T01:06:53.423Z,20.15
2022-12-19T01:09:21.919Z,20.16
2022-12-19T01:12:07.726Z,20.16
2022-12-19T01:14:35.418Z,20.18
2022-12-19T01:17:02.591Z,20.19
2022-12-19T01:19:29.978Z,20.20
2022-12-19T01:21:57.064Z,20.20
2022-12-19T01:24:24.988Z,20.19
2022-12-19T01:26:52.373Z,20.16
2022-12-19T01:29:19.681Z,20.12
2022-12-19T01:31:46.910Z,20.06
2022-12-19T01:34:14.317Z,20.08
2022-12-19T01:36:41.415Z,20.14
2022-12-19T01:39:08.830Z,20.16
2022-12-19T01:41:37.645Z,20.13
2022-12-19T01:44:07.523Z,20.12
2022-12-19T01:46:49.502Z,20.12
2022-12-19T01:49:26.489Z,20.12
2022-12-19T01:51:57.187Z,20.13
2022-12-19T01:54:30.525Z,20.12
2022-12-19T01:57:00.472Z,20.12
2022-12-19T01:59:33.034Z,20.14
2022-12-19T02:02:11.524Z,20.14
2022-12-19T02:04:41.006Z,20.09
2022-12-19T02:07:16.030Z,20.09
2022-12-19T02:09:47.399Z,20.10
2022-12-19T02:12:20.354Z,20.13
2022-12-19T02:14:48.579Z,20.12
2022-12-19T02:17:24.289Z,20.16
2022-12-19T02:20:22.003Z,20.16
2022-12-19T02:23:06.615Z,20.19
2022-12-19T02:25:58.923Z,20.15
2022-12-19T02:28:40.845Z,20.14
2022-12-19T02:31:39.780Z,20.13
2022-12-19T02:34:09.627Z,20.17
2022-12-19T02:36:46.361Z,20.20
2022-12-19T02:39:22.622Z,20.22
2022-12-19T02:41:58.574Z,20.19
2022-12-19T02:44:42.122Z,20.22
2022-12-19T02:47:10.236Z,20.21
2022-12-19T02:49:38.640Z,20.24
2022-12-19T02:52:32.867Z,20.25
2022-12-19T02:55:13.801Z,20.28
2022-12-19T02:57:49.523Z,20.28
2022-12-19T03:00:25.940Z,20.26
2022-12-19T03:03:21.302Z,20.23
2022-12-19T03:06:11.419Z,20.22
2022-12-19T03:09:07.888Z,20.14
2022-12-19T03:11:39.270Z,20.13
2022-12-19T03:14:19.651Z,20.11
2022-12-19T03:16:46.958Z,20.05
2022-12-19T03:19:15.209Z,20.01
2022-12-19T03:21:45.940Z,19.94
2022-12-19T03:24:14.803Z,19.85
2022-12-19T03:26:51.826Z,19.79
2022-12-19T03:29:43.146Z,19.75
2022-12-19T03:32:13.574Z,19.72
2022-12-19T03:34:43.488Z,19.70
2022-12-19T03:37:15.721Z,19.68
2022-12-19T03:39:46.377Z,19.66
2022-12-19T03:42:33.709Z,19.66
2022-12-19T03:45:04.182Z,19.65
2022-12-19T03:47:42.592Z,19.66
2022-12-19T03:50:10.293Z,19.65
2022-12-19T03:52:49.284Z,19.70
2022-12-19T03:55:49.294Z,19.73
2022-12-19T03:58:21.121Z,19.74
2022-12-19T04:00:49.785Z,19.81
2022-12-19T04:03:19.465Z,19.85
2022-12-19T04:05:48.808Z,19.89
2022-12-19T04:08:17.032Z,19.89
2022-12-19T04:10:50.703Z,19.88
2022-12-19T04:13:23.921Z,19.87
2022-12-19T04:16:03.016Z,19.83
2022-12-19T04:18:31.861Z,19.83
2022-12-19T04:21:28.394Z,19.83
2022-12-19T04:24:04.120Z,19.84
2022-12-19T04:26:32.758Z,19.83
2022-12-19T04:29:02.930Z,19.84
2022-12-19T04:31:30.153Z,19.85
2022-12-19T04:33:58.037Z,19.86
2022-12-19T04:36:26.728Z,19.86
2022-12-19T04:38:53.872Z,19.87
2022-12-19T04:41:20.956Z,19.88
2022-12-19T04:43:47.961Z,19.92
2022-12-19T04:46:15.107Z,19.95
2022-12-19T04:48:42.208Z,19.99
2022-12-19T04:51:09.244Z,20.01
2022-12-19T04:53:36.404Z,20.03
2022-12-19T04:56:07.314Z,20.04
2022-12-19T04:58:34.426Z,20.00
2022-12-19T05:01:03.340Z,19.97
2022-12-19T05:03:30.864Z,19.95
2022-12-19T05:06:06.385Z,19.95
2022-12-19T05:08:33.920Z,19.96
2022-12-19T05:11:02.569Z,19.96
2022-12-19T05:13:30.536Z,19.97
2022-12-19T05:15:59.198Z,19.95
2022-12-19T05:18:27.158Z,19.95
2022-12-19T05:20:54.318Z,19.94
2022-12-19T05:23:21.449Z,19.85
2022-12-19T05:25:49.111Z,19.81
2022-12-19T05:28:16.448Z,19.76
2022-12-19T05:30:47.852Z,19.73
2022-12-19T05:33:19.201Z,19.69
2022-12-19T05:35:46.230Z,19.65
2022-12-19T05:38:13.273Z,19.66
2022-12-19T05:40:41.212Z,19.66
2022-12-19T05:43:08.202Z,19.62
2022-12-19T05:45:35.260Z,19.63
2022-12-19T05:48:02.603Z,19.64
2022-12-19T05:50:29.628Z,19.63
2022-12-19T05:52:56.670Z,19.63
2022-12-19T05:55:24.403Z,19.61
2022-12-19T05:57:51.449Z,19.60
2022-12-19T06:00:18.697Z,19.57
2022-12-19T06:02:46.000Z,19.56
2022-12-19T06:05:13.119Z,19.50
2022-12-19T06:07:40.313Z,19.46
2022-12-19T06:10:07.918Z,19.42
2022-12-19T06:12:34.950Z,19.39
2022-12-19T06:15:01.972Z,19.37
2022-12-19T06:17:29.119Z,19.37
2022-12-19T06:19:56.143Z,19.38
2022-12-19T06:22:24.393Z,19.38
2022-12-19T06:24:51.468Z,19.36
2022-12-19T06:27:18.541Z,19.31
2022-12-19T06:29:45.631Z,19.30
2022-12-19T06:32:12.993Z,19.31
2022-12-19T06:35:03.210Z,19.33
2022-12-19T06:37:27.275Z,19.31
2022-12-19T06:39:54.319Z,19.27
2022-12-19T06:42:24.181Z,19.23
2022-12-19T06:44:56.498Z,19.23
2022-12-19T06:47:25.183Z,19.28
2022-12-19T06:49:52.256Z,19.34
2022-12-19T06:52:19.591Z,19.33
2022-12-19T06:54:46.870Z,19.39
2022-12-19T06:57:14.008Z,19.45
2022-12-19T06:59:41.086Z,19.53
2022-12-19T07:02:25.235Z,19.60
2022-12-19T07:04:57.162Z,19.63
2022-12-19T07:07:24.269Z,19.60
2022-12-19T07:09:51.432Z,19.57
2022-12-19T07:12:18.449Z,19.53
2022-12-19T07:14:50.166Z,19.48
2022-12-19T07:17:21.302Z,19.41
2022-12-19T07:19:48.387Z,19.38
2022-12-19T07:22:15.531Z,19.37
2022-12-19T07:24:42.665Z,19.37
2022-12-19T07:27:09.826Z,19.36
2022-12-19T07:29:36.875Z,19.37
2022-12-19T07:32:04.096Z,19.35
2022-12-19T07:34:31.647Z,19.35
2022-12-19T07:36:58.699Z,19.32
2022-12-19T07:39:25.943Z,19.32
2022-12-19T07:41:52.963Z,19.29
2022-12-19T07:44:20.238Z,19.28
2022-12-19T07:46:48.214Z,19.28
2022-12-19T07:49:19.672Z,19.30
2022-12-19T07:51:49.696Z,19.34
2022-12-19T07:54:16.728Z,19.41
2022-12-19T07:56:43.877Z,19.46
2022-12-19T07:59:13.321Z,19.46
2022-12-19T08:01:40.603Z,19.44
2022-12-19T08:04:07.959Z,19.44
2022-12-19T08:06:40.783Z,19.41
2022-12-19T08:09:09.054Z,19.43
2022-12-19T08:11:36.177Z,19.44
2022-12-19T08:14:03.423Z,19.46
2022-12-19T08:16:49.283Z,19.46
2022-12-19T08:19:25.910Z,19.49
2022-12-19T08:21:54.562Z,19.50
2022-12-19T08:24:21.626Z,19.49
2022-12-19T08:26:48.639Z,19.50
2022-12-19T08:29:15.685Z,19.55
2022-12-19T08:31:42.795Z,19.59
2022-12-19T08:34:09.820Z,19.62
2022-12-19T08:36:38.831Z,19.65
2022-12-19T08:39:06.691Z,19.67
2022-12-19T08:41:33.710Z,19.71
2022-12-19T08:44:01.539Z,19.72
2022-12-19T08:46:29.174Z,19.73
2022-12-19T08:48:57.041Z,19.74
2022-12-19T08:51:24.778Z,19.74
2022-12-19T08:53:51.839Z,19.72
2022-12-19T08:56:21.075Z,19.70
2022-12-19T08:58:49.039Z,19.72
2022-12-19T09:01:19.502Z,19.69
2022-12-19T09:04:19.965Z,19.70
2022-12-19T09:06:35.198Z,19.66
2022-12-19T09:09:04.329Z,19.64
2022-12-19T09:11:31.547Z,19.65
2022-12-19T09:13:58.937Z,19.67
2022-12-19T09:16:28.717Z,19.69
2022-12-19T09:18:58.937Z,19.71
2022-12-19T09:21:29.508Z,19.73
2022-12-19T09:24:05.228Z,19.72
2022-12-19T09:26:35.711Z,19.75
2022-12-19T09:29:12.216Z,19.78
2022-12-19T09:31:51.486Z,19.84
2022-12-19T09:34:33.059Z,19.87
2022-12-19T09:37:05.087Z,19.90
2022-12-19T09:39:33.498Z,19.99
2022-12-19T09:42:40.767Z,20.07
2022-12-19T09:45:31.764Z,20.12
2022-12-19T09:48:02.688Z,20.13
2022-12-19T09:50:41.699Z,20.16
2022-12-19T09:53:25.622Z,20.20
2022-12-19T09:55:54.419Z,20.22
2022-12-19T09:58:38.029Z,20.25
2022-12-19T10:01:22.619Z,20.27
2022-12-19T10:04:02.748Z,20.32
2022-12-19T10:07:14.004Z,20.39
2022-12-19T10:10:19.182Z,20.45
2022-12-19T10:12:49.883Z,20.49
2022-12-19T10:15:22.898Z,20.51
2022-12-19T10:18:12.448Z,20.53
2022-12-19T10:20:46.001Z,20.57
2022-12-19T10:23:13.121Z,20.63
2022-12-19T10:26:11.302Z,20.69
2022-12-19T10:28:55.297Z,20.73
2022-12-19T10:31:48.844Z,20.80
2022-12-19T10:34:30.393Z,20.82
2022-12-19T10:37:25.771Z,20.88
2022-12-19T10:39:59.921Z,20.92
2022-12-19T10:42:40.140Z,20.80
2022-12-19T10:45:19.698Z,20.80
2022-12-19T10:47:57.830Z,20.77
2022-12-19T10:50:28.315Z,20.69
2022-12-19T10:53:16.624Z,20.69
2022-12-19T10:55:52.078Z,20.73
2022-12-19T10:58:25.208Z,20.71
2022-12-19T11:01:05.393Z,20.71
2022-12-19T11:03:34.502Z,20.75
2022-12-19T11:06:03.454Z,20.70
2022-12-19T11:08:37.040Z,20.61
2022-12-19T11:13:10.354Z,20.53
2022-12-19T11:17:03.901Z,20.50
2022-12-19T11:20:16.818Z,20.56
2022-12-19T11:25:39.473Z,20.61
2022-12-19T11:29:26.734Z,20.60
2022-12-19T11:29:32.820Z,20.69
2022-12-19T11:29:34.683Z,20.59
2022-12-19T11:34:21.522Z,20.81
2022-12-19T11:36:52.404Z,20.84
2022-12-19T11:39:26.360Z,20.83
2022-12-19T11:42:22.188Z,20.82
2022-12-19T11:44:53.853Z,20.79
2022-12-19T11:48:03.737Z,20.86
2022-12-19T11:50:33.922Z,20.82
2022-12-19T11:53:07.846Z,20.86
2022-12-19T11:55:39.741Z,20.91
2022-12-19T11:58:50.996Z,21.00
2022-12-19T12:01:57.555Z,21.07
2022-12-19T12:04:43.393Z,21.09
2022-12-19T12:07:41.534Z,21.15
2022-12-19T12:15:24.433Z,21.18
2022-12-19T12:18:43.598Z,21.22
2022-12-19T12:27:49.072Z,21.26
2022-12-19T12:31:05.106Z,20.97
2022-12-19T12:31:12.903Z,21.13
2022-12-19T12:31:49.900Z,21.01
2022-12-19T12:32:05.580Z,20.99
2022-12-19T12:35:51.513Z,21.15
2022-12-19T12:40:54.387Z,21.05
2022-12-19T12:43:46.098Z,21.16
2022-12-19T12:46:19.835Z,21.19
2022-12-19T12:49:02.104Z,21.25
2022-12-19T12:51:33.429Z,21.28
2022-12-19T12:54:07.977Z,21.30
2022-12-19T12:56:36.878Z,21.29
2022-12-19T12:59:26.293Z,21.31
2022-12-19T13:01:59.873Z,21.32
2022-12-19T13:04:34.963Z,21.37
2022-12-19T13:07:12.950Z,21.30
2022-12-19T13:09:41.079Z,21.18
2022-12-19T13:12:38.322Z,21.22
2022-12-19T13:15:40.647Z,21.29
2022-12-19T13:18:31.773Z,21.36
2022-12-19T13:21:00.286Z,21.35
2022-12-19T13:23:30.067Z,21.30
2022-12-19T13:25:57.282Z,21.41
2022-12-19T13:28:24.347Z,21.49
2022-12-19T13:31:18.315Z,21.58
2022-12-19T13:33:53.972Z,21.58
2022-12-19T13:39:49.182Z,21.50
2022-12-19T13:40:11.227Z,21.35
2022-12-19T13:43:11.444Z,21.35
2022-12-19T13:45:41.732Z,21.38
2022-12-19T13:48:23.445Z,21.33
2022-12-19T13:50:52.053Z,21.43
2022-12-19T13:53:22.890Z,21.47
2022-12-19T13:55:50.587Z,21.47
2022-12-19T13:58:30.403Z,21.50
2022-12-19T14:01:06.933Z,21.55
2022-12-19T14:03:39.124Z,21.58
2022-12-19T14:06:28.532Z,21.63
2022-12-19T14:11:24.027Z,21.70
2022-12-19T14:12:20.234Z,21.72
2022-12-19T14:15:13.164Z,21.77
2022-12-19T14:17:41.292Z,21.82
2022-12-19T14:21:30.862Z,21.83
2022-12-19T14:23:15.692Z,21.83
2022-12-19T14:28:25.549Z,21.81
2022-12-19T14:28:55.113Z,21.90
2022-12-19T14:31:23.832Z,21.98
2022-12-19T14:34:18.508Z,22.02
2022-12-19T14:36:47.412Z,21.96
2022-12-19T14:39:26.610Z,21.94
2022-12-19T14:43:57.416Z,21.97
2022-12-19T14:54:06.400Z,21.92
2022-12-19T14:54:17.043Z,21.90
2022-12-19T14:54:27.813Z,21.93
2022-12-19T14:57:25.327Z,22.07
2022-12-19T15:01:07.356Z,22.18
2022-12-19T15:03:20.657Z,22.34
2022-12-19T15:05:48.237Z,22.39
2022-12-19T15:09:50.744Z,22.44
2022-12-19T15:11:53.928Z,22.48
2022-12-19T15:14:58.657Z,22.48
2022-12-19T15:17:27.313Z,22.44
2022-12-19T15:19:55.833Z,22.40
2022-12-19T15:22:22.930Z,22.29
2022-12-19T15:24:50.025Z,22.29
2022-12-19T15:27:17.905Z,22.27
2022-12-19T15:29:45.252Z,22.33
2022-12-19T15:32:18.404Z,22.40
2022-12-19T15:34:51.065Z,22.38
2022-12-19T15:37:18.848Z,22.43
2022-12-19T15:39:46.004Z,22.52
2022-12-19T15:42:28.257Z,22.57
2022-12-19T15:45:00.422Z,22.55
2022-12-19T15:47:35.542Z,22.59
2022-12-19T15:50:14.757Z,22.61
2022-12-19T15:52:41.922Z,22.51
2022-12-19T15:55:14.920Z,22.54
2022-12-19T15:57:46.583Z,22.56
2022-12-19T16:00:23.438Z,22.73
2022-12-19T16:05:39.381Z,22.98
2022-12-19T16:08:17.757Z,22.98
2022-12-19T16:10:48.457Z,23.11
2022-12-19T16:13:23.576Z,23.16
2022-12-19T16:15:51.438Z,23.16
2022-12-19T16:18:19.921Z,23.09
2022-12-19T16:20:48.075Z,23.00
2022-12-19T16:23:16.143Z,22.95
2022-12-19T16:25:46.887Z,22.92
2022-12-19T16:28:26.943Z,22.93
2022-12-19T16:30:56.788Z,22.95
2022-12-19T16:33:29.192Z,22.96
2022-12-19T16:36:05.999Z,22.97
2022-12-19T16:38:34.236Z,22.91
2022-12-19T16:41:04.567Z,22.84
2022-12-19T16:43:37.648Z,22.80
2022-12-19T16:46:07.254Z,22.75
2022-12-19T16:48:36.203Z,22.61
2022-12-19T16:51:03.553Z,22.57
2022-12-19T16:53:31.785Z,22.54
2022-12-19T16:56:00.420Z,22.57
2022-12-19T16:58:29.020Z,22.48
2022-12-19T17:00:56.449Z,22.43
2022-12-19T17:03:42.055Z,22.26
2022-12-19T17:06:17.727Z,22.27
2022-12-19T17:08:45.293Z,22.28
2022-12-19T17:11:16.113Z,22.11
2022-12-19T17:13:46.055Z,22.07
2022-12-19T17:16:14.483Z,22.05
2022-12-19T17:18:43.062Z,21.96
2022-12-19T17:21:17.530Z,21.94
2022-12-19T17:23:44.761Z,21.84
2022-12-19T17:26:17.455Z,21.86
2022-12-19T17:28:48.502Z,21.72
2022-12-19T17:31:28.391Z,21.58
2022-12-19T17:33:58.318Z,21.58
2022-12-19T17:36:37.168Z,21.55
2022-12-19T17:39:26.380Z,21.59
2022-12-19T17:41:56.571Z,21.61
2022-12-19T17:44:23.849Z,21.63
2022-12-19T17:46:51.561Z,21.61
2022-12-19T17:49:31.800Z,21.61
2022-12-19T17:52:00.114Z,21.52
2022-12-19T17:54:27.653Z,21.50
2022-12-19T17:56:55.529Z,21.41
2022-12-19T17:59:22.662Z,21.35
2022-12-19T18:01:50.114Z,21.35
2022-12-19T18:04:20.208Z,21.34
2022-12-19T18:06:47.599Z,21.33
2022-12-19T18:09:23.453Z,21.34
2022-12-19T18:11:52.113Z,21.31
2022-12-19T18:14:20.214Z,21.24
2022-12-19T18:16:49.496Z,21.22
2022-12-19T18:19:23.698Z,21.24
2022-12-19T18:21:50.819Z,21.24
2022-12-19T18:24:18.010Z,21.22
2022-12-19T18:26:45.583Z,21.22
2022-12-19T18:29:13.618Z,21.21
2022-12-19T18:31:48.124Z,21.18
2022-12-19T18:34:22.576Z,21.18
2022-12-19T18:36:50.364Z,21.17
2022-12-19T18:39:23.943Z,21.13
2022-12-19T18:41:51.638Z,21.11
2022-12-19T18:44:18.807Z,21.08
2022-12-19T18:46:46.830Z,21.04
2022-12-19T18:49:15.965Z,21.02
2022-12-19T18:51:44.972Z,21.00
2022-12-19T18:54:18.975Z,20.98
2022-12-19T18:56:46.959Z,20.98
2022-12-19T18:59:14.168Z,20.98
2022-12-19T19:01:47.182Z,20.98
2022-12-19T19:04:18.276Z,20.96
2022-12-19T19:06:51.694Z,20.94
2022-12-19T19:09:21.272Z,20.94
2022-12-19T19:11:48.832Z,20.90
2022-12-19T19:14:15.897Z,20.84
2022-12-19T19:16:43.156Z,20.84
2022-12-19T19:19:14.836Z,20.86
2022-12-19T19:21:42.940Z,20.89
2022-12-19T19:24:15.818Z,20.89
2022-12-19T19:26:42.971Z,20.90
2022-12-19T19:29:10.190Z,20.92
2022-12-19T19:31:40.448Z,20.94
2022-12-19T19:34:17.160Z,20.94
2022-12-19T19:36:47.609Z,20.92
2022-12-19T19:39:14.738Z,20.92
2022-12-19T19:41:41.950Z,20.92
2022-12-19T19:44:09.495Z,20.88
2022-12-19T19:46:37.746Z,20.83
2022-12-19T19:49:04.956Z,20.80
2022-12-19T19:51:32.499Z,20.80
2022-12-19T19:53:59.694Z,20.83
2022-12-19T19:56:26.821Z,20.86
2022-12-19T19:58:55.496Z,20.85
2022-12-19T20:01:22.768Z,20.84
2022-12-19T20:03:50.033Z,20.84
2022-12-19T20:06:18.056Z,20.84
2022-12-19T20:08:45.543Z,20.81
2022-12-19T20:11:12.764Z,20.80
2022-12-19T20:13:39.864Z,20.78
2022-12-19T20:16:08.760Z,20.76
2022-12-19T20:18:37.542Z,20.76
2022-12-19T20:21:12.327Z,20.75
2022-12-19T20:23:42.974Z,20.77
2022-12-19T20:26:11.708Z,20.79
2022-12-19T20:28:46.003Z,20.79
2022-12-19T20:31:16.292Z,20.82
2022-12-19T20:33:43.502Z,20.81
2022-12-19T20:36:12.619Z,20.78
2022-12-19T20:38:40.307Z,20.79
2022-12-19T20:41:07.564Z,20.80
2022-12-19T20:43:35.036Z,20.83
2022-12-19T20:46:04.630Z,20.82
2022-12-19T20:48:32.193Z,20.82
2022-12-19T20:51:00.869Z,20.79
2022-12-19T20:53:28.498Z,20.73
2022-12-19T20:55:59.153Z,20.72
2022-12-19T20:58:27.959Z,20.72
2022-12-19T21:00:56.264Z,20.71
2022-12-19T21:03:29.450Z,20.71
2022-12-19T21:05:57.112Z,20.72
2022-12-19T21:08:25.856Z,20.72
2022-12-19T21:10:53.626Z,20.74
2022-12-19T21:13:22.370Z,20.76
2022-12-19T21:15:57.449Z,20.79
2022-12-19T21:18:27.350Z,20.78
2022-12-19T21:20:55.981Z,20.78
2022-12-19T21:23:25.580Z,20.79
2022-12-19T21:25:56.529Z,20.79
2022-12-19T21:28:23.794Z,20.78
2022-12-19T21:31:03.867Z,20.79
2022-12-19T21:33:31.432Z,20.74
2022-12-19T21:35:58.519Z,20.70
2022-12-19T21:38:25.870Z,20.70
2022-12-19T21:40:52.904Z,20.67
2022-12-19T21:43:20.119Z,20.64
2022-12-19T21:45:47.443Z,20.64
2022-12-19T21:48:14.577Z,20.62
2022-12-19T21:50:41.635Z,20.63
2022-12-19T21:53:09.015Z,20.63
2022-12-19T21:55:36.283Z,20.63
2022-12-19T21:58:03.599Z,20.62
2022-12-19T22:00:30.766Z,20.60
2022-12-19T22:03:15.115Z,20.52
2022-12-19T22:05:42.476Z,20.50
2022-12-19T22:08:11.265Z,20.51
2022-12-19T22:10:40.146Z,20.51
2022-12-19T22:13:07.298Z,20.53
2022-12-19T22:15:36.086Z,20.54
2022-12-19T22:18:03.504Z,20.56
2022-12-19T22:20:30.528Z,20.56
2022-12-19T22:22:57.630Z,20.57
2022-12-19T22:25:24.721Z,20.58
2022-12-19T22:27:51.758Z,20.60
2022-12-19T22:30:18.808Z,20.58
2022-12-19T22:32:46.893Z,20.57
2022-12-19T22:35:13.996Z,20.58
2022-12-19T22:37:41.073Z,20.55
2022-12-19T22:40:08.806Z,20.52
2022-12-19T22:42:35.945Z,20.48
2022-12-19T22:45:03.144Z,20.43
2022-12-19T22:47:30.299Z,20.41
2022-12-19T22:49:57.324Z,20.41
2022-12-19T22:52:25.003Z,20.39
2022-12-19T22:54:52.581Z,20.31
2022-12-19T22:57:19.686Z,20.25
2022-12-19T22:59:46.748Z,20.18
2022-12-19T23:02:14.106Z,20.16
2022-12-19T23:04:41.447Z,20.14
2022-12-19T23:07:08.535Z,20.13
2022-12-19T23:09:35.607Z,20.17
2022-12-19T23:12:02.674Z,20.20
2022-12-19T23:14:29.804Z,20.18
2022-12-19T23:16:56.896Z,20.17
2022-12-19T23:19:23.968Z,20.19
2022-12-19T23:21:51.007Z,20.16
2022-12-19T23:24:18.132Z,20.14
2022-12-19T23:26:45.175Z,20.12
2022-12-19T23:29:15.216Z,20.13
2022-12-19T23:31:45.256Z,20.15
2022-12-19T23:34:13.060Z,20.16
2022-12-19T23:39:27.672Z,20.12
2022-12-19T23:41:54.787Z,20.12
2022-12-19T23:44:22.134Z,20.09
2022-12-19T23:46:49.165Z,20.06
2022-12-19T23:49:16.374Z,20.02
2022-12-19T23:51:43.496Z,19.96
2022-12-19T23:54:10.581Z,19.87
2022-12-19T23:56:37.678Z,19.81
2022-12-19T23:59:04.795Z,19.74
